KEQY

Charlotte-Monroe Executive Airport

Monroe, North Carolina, USA
METAR KEQY 201253Z AUTO 26006KT 10SM CLR M02/M09 A3017 RMK AO2 SLP240 T10171089
Observed Flight Rules
Jan-20 @ 12:53 UTC (18 minutes ago) Visual Flight Rules
Wind Visibility Clouds
260° at 6 knots 10 miles
  • Clear skies
Temperatures Readings
Current -2°C / 28°F
Dewpoint -9°C / 16°F
Humidity 59%
Altimeter 30.17" Hg
Pressure 1024 hPa
Elevation 212
METAR KEQY 201253Z AUTO 26006KT 10SM CLR M02/M09 A3017 RMK AO2 SLP240 T10171089
Observed Flight Rules
Jan-20 @ 12:53 UTC
(18 minutes ago)
VFR
Wind Visibility
260° at 6 knots 10 miles
Clouds
  • Clear skies
Temperature Dewpoint
-2°C / 28°F -9°C / 16°F
Humidity Altimeter Pressure
59% 30.17" Hg 1024 hPa